AirNav   Everest Fuels
 
 1440 users online  

3MO3 Research Medical Center Heliport
Kansas City, Missouri, USA

GOING TO KANSAS CITY?


FAA INFORMATION EFFECTIVE 18 JUNE 2020

Location

FAA Identifier: 3MO3
Lat/Long: 39-00-29.5100N 094-33-24.2900W
39-00.491833N 094-33.404833W
39.0081972,-94.5567472
(estimated)
Elevation: 947 ft. / 288.6 m (surveyed)
Variation: 05E (1985)
Time zone: UTC -5 (UTC -6 during Standard Time)
Zip code: 64132

Heliport Operations

Heliport use: Private use, MEDICAL.
Activation date: 02/1976
Control tower: no
ARTCC: KANSAS CITY CENTER
FSS: COLUMBIA FLIGHT SERVICE STATION
Attendance: CONTINUOUS
FOR SVC CALL 276-4177
Wind indicator: yes
Segmented circle: no
Lights: FOR PERIMETER LGTS CALL 816-276-4177.

Heliport Communications

WX ASOS at MKC (7 nm N): PHONE 816-329-2843
WX ASOS at LXT (9 nm E): 124.175 (816-347-9807)
WX ASOS at OJC (13 nm SW): 119.35 (913-780-6969)
WX ASOS at MCI (19 nm NW): PHONE 816-329-2808
WX ASOS at IXD (19 nm SW): 135.325 (913-780-6987)

Nearby radio navigation aids

VOR radial/distance  VOR name  Freq  Var
MCIr148/18.6KANSAS CITY VORTAC113.2505E
ANXr248/20.6NAPOLEON VORTAC114.0007E

Heliport Services

Runway Information

Helipad H2

Dimensions: 70 x 100 ft. / 21 x 30 m
Surface: asphalt
Runway edge lights: PERI
Traffic pattern: leftleft

Helipad H1

Dimensions: 60 x 55 ft. / 18 x 17 m
Surface: concrete
Latitude: 39-00.491833N
Longitude: 094-33.404833W
Elevation: 947.0 ft.
Traffic pattern: leftleft
Obstructions: 90 ft. bldg, 70 ft. from runway
BLDG 70' WEST OF HELIPAD.

Heliport Ownership and Management from official FAA records

Ownership: Privately-owned
Owner: RESEARCH MEDICAL CENTER
2316 EAST MEYER BLVD
KANSAS CITY, MO 64132
Phone 816-276-4000
Manager: DIRECTOR OF PLANT OPNS
2316 EAST MEYER BLVD
KANSAS CITY, MO 64132
Phone 816-276-4177
MICHAEL SWITZER

Heliport Operational Statistics

Aircraft based on the field: 1
Helicopters: 1
    

Additional Remarks

A52-H2 35' PLINES 110' E; 50' TREES 225' S; 20' PKG STRUCTURE 90' N.
9500 LB GWT LMT PER ARPT MGR.
FOR CD CTC KANSAS CITY APCH AT 816-329-2710.

Instrument Procedures

There are no published instrument procedures at 3MO3.

Some nearby airports with instrument procedures:

KMKC - Charles B Wheeler Downtown Airport (7 nm N)
KLXT - Lee's Summit Municipal Airport (9 nm E)
KOJC - Johnson County Executive Airport (13 nm SW)
3GV - East Kansas City Airport (16 nm E)
KMCI - Kansas City International Airport (19 nm NW)
KIXD - New Century AirCenter Airport (19 nm SW)
 
Loc | Ops | Rwys | IFR | FBO | Links
Com | Nav | Svcs | Stats | Notes
Area around 3MO3 (Research Medical Center Heliport)
 
Road maps at: MapQuest Bing Google
 
Aerial photo
No photo
 
Sectional chart

 
Airport distance calculator
Flying to Research Medical Center Heliport? Find the distance to fly.

From to 3MO3

Sunrise and sunset
Times for 15-Jul-2020
 Local
(UTC-5)
 Zulu
(UTC)
Morning civil twilight05:3510:35
Sunrise06:0711:07
Sunset20:4201:42
Evening civil twilight21:1302:13

Current date and time
Zulu (UTC)  15-Jul-2020 18:40:36
Local (UTC-5)  15-Jul-2020 13:40:36
 
METAR
KMKC 
7nm N 
151754Z 10SM -RA SCT010 BKN047 BKN075 23/21 A2993 RMK AO2 RAE23B48 SLP126 P0000 60084 T02330211 10233 20206 50002
KLXT 
9nm E 
151753Z AUTO 09004KT 10SM FEW006 SCT080 BKN120 23/21 A2993 RMK AO2 RAE48 SLP124 P0002 60076 T02280206 10228 20211 50007
KOJC 
13nm SW 
151753Z 07008KT 10SM FEW009 FEW035 23/23 A2993 RMK AO2 RAE48 SLP124 P0007 60065 T02330228 10233 20194 50001 $
KIXD 
19nm SW 
151753Z 06006KT 10SM CLR 24/20 A2995 RMK AO2 RAE14 SLP130 P0001 60057 T02440200 10244 20206 50003
KMCI 
19nm NW 
151753Z 23008KT 10SM BKN008 23/13 A2994 RMK AO2 RAE15 SLP126 P0001 60090 T02330133 10233 20200 57016
TAF
KMKC 
7nm N 
151724Z 1518/1618 01006KT 6SM -RA OVC050 FM152000 02007KT P6SM SCT050 FM161300 09004KT 3SM BR OVC007 FM161500 20003KT 6SM BR OVC015
KIXD 
19nm SW 
151724Z 1518/1618 02009KT 6SM -RA OVC035 FM152100 35011KT P6SM SCT050 FM160900 04003KT 3SM BR OVC015 FM161500 12005KT 6SM BR OVC015
KMCI 
19nm NW 
151724Z 1518/1618 02007KT P6SM BKN035 FM161000 03004KT 5SM BR OVC009 FM161500 20003KT P6SM OVC015
NOTAMs
Click for the latest NOTAMs
NOTAMs are issued by the DoD/FAA and will open in a separate window not controlled by AirNav.

 

 
 

Would you like to see your business listed on this page?

 If your business provides an interesting product or service to pilots, flight crews, aircraft, or users of the Research Medical Center Heliport, you should consider listing it here.  To start the listing process, click on the button below
 
Add a business
 

Other Pages about Research Medical Center Heliport

Update a link
 
Copyright © AirNav, LLC. All rights reserved. Privacy Policy  Contact